Time;durP1;ratioP1;P1;durP2;ratioP2;P2;SDS_P1;SDS_P2;PMS_P1;PMS_P2;Temp;Humidity;BMP_temperature;BMP_pressure;BME280_temperature;BME280_humidity;BME280_pressure;Samples;Min_cycle;Max_cycle;Signal;HPM_P1;HPM_P2
2022/11/24 00:01:23;;;;;;;;;8.33;1.00;;;;;11.40;100.00;100410.28;5041858;28;46073;-76
2022/11/24 00:03:59;;;;;;;;;2.67;1.33;;;;;11.45;100.00;100405.91;5057284;28;45570;-76
2022/11/24 00:06:27;;;;;;;;;3.00;1.67;;;;;11.50;100.00;100414.72;5075852;27;45517;-76
2022/11/24 00:08:52;;;;;;;;;3.33;2.00;;;;;11.54;100.00;100411.16;5065819;28;46885;-77
2022/11/24 00:11:20;;;;;;;;;2.00;1.00;;;;;11.57;100.00;100417.34;5064192;28;45517;-76
2022/11/24 00:13:46;;;;;;;;;2.67;1.67;;;;;11.62;100.00;100428.81;5056674;28;45708;-74
2022/11/24 00:16:13;;;;;;;;;9.67;1.67;;;;;11.67;100.00;100427.06;5057246;28;45386;-75
2022/11/24 00:18:39;;;;;;;;;5.00;1.00;;;;;11.68;100.00;100420.88;5057935;28;45671;-75
2022/11/24 00:21:05;;;;;;;;;5.33;1.00;;;;;11.73;100.00;100417.34;5053107;28;45248;-74
2022/11/24 00:23:31;;;;;;;;;2.67;1.67;;;;;11.77;100.00;100407.63;5052238;28;45322;-76
2022/11/24 00:26:29;;;;;;;;;4.33;1.00;;;;;11.82;100.00;100397.09;5078423;27;45276;-75
2022/11/24 00:28:58;;;;;;;;;3.33;1.67;;;;;11.85;100.00;100397.09;5034787;28;46305;-76
2022/11/24 00:31:27;;;;;;;;;3.33;1.33;;;;;11.89;100.00;100375.94;5072769;27;45279;-76
2022/11/24 00:33:54;;;;;;;;;0.00;0.00;;;;;11.93;100.00;100374.13;5053953;28;45437;-78
2022/11/24 00:36:21;;;;;;;;;5.33;1.00;;;;;11.94;100.00;100368.00;5064996;27;45474;-78
2022/11/24 00:38:47;;;;;;;;;2.00;0.33;;;;;11.98;100.00;100372.34;5055362;28;45833;-78
2022/11/24 00:41:12;;;;;;;;;1.67;0.00;;;;;11.99;100.00;100348.56;5056021;28;45382;-75
2022/11/24 00:43:37;;;;;;;;;3.33;1.00;;;;;12.03;100.00;100389.09;5035877;28;45267;-77
2022/11/24 00:46:03;;;;;;;;;2.00;0.67;;;;;12.01;100.00;100375.91;5052865;28;45550;-76
2022/11/24 00:48:29;;;;;;;;;6.00;2.00;;;;;12.03;100.00;100381.16;5049213;28;45702;-75
2022/11/24 00:51:01;;;;;;;;;2.67;1.00;;;;;12.06;100.00;100363.53;5049324;28;45323;-76
2022/11/24 00:53:27;;;;;;;;;2.33;1.00;;;;;12.07;100.00;100369.69;5055694;28;45463;-74
2022/11/24 00:55:53;;;;;;;;;6.33;1.67;;;;;12.09;100.00;100386.47;5056352;28;45284;-75
2022/11/24 00:58:18;;;;;;;;;1.00;1.00;;;;;12.06;100.00;100383.81;5055272;28;45771;-74
2022/11/24 01:00:43;;;;;;;;;0.00;0.00;;;;;12.04;100.00;100381.19;5056942;28;45285;-76
2022/11/24 01:03:09;;;;;;;;;0.00;0.00;;;;;12.01;100.00;100410.28;5055234;28;62989;-76
2022/11/24 01:05:35;;;;;;;;;4.00;1.00;;;;;11.94;100.00;100408.53;5055014;28;45286;-77
2022/11/24 01:08:00;;;;;;;;;0.67;0.00;;;;;11.93;100.00;100416.47;5067202;28;48896;-76
2022/11/24 01:10:26;;;;;;;;;2.00;0.67;;;;;11.87;100.00;100404.13;5056042;28;60367;-75
2022/11/24 01:12:51;;;;;;;;;2.00;0.00;;;;;11.83;100.00;100404.16;5055774;28;45754;-76
2022/11/24 01:15:17;;;;;;;;;1.00;0.00;;;;;11.82;100.00;100419.13;5083429;27;51991;-76
2022/11/24 01:17:42;;;;;;;;;0.00;0.00;;;;;11.78;100.00;100422.66;5055721;28;56261;-74
2022/11/24 01:20:08;;;;;;;;;0.00;0.00;;;;;11.76;100.00;100429.69;5048416;28;61362;-76
2022/11/24 01:22:33;;;;;;;;;0.00;0.00;;;;;11.74;100.00;100434.97;5063728;28;45473;-76
2022/11/24 01:24:59;;;;;;;;;0.00;0.00;;;;;11.73;100.00;100440.28;5055570;28;45461;-76
2022/11/24 01:27:24;;;;;;;;;2.33;0.00;;;;;11.71;100.00;100442.91;5055485;28;62485;-76
2022/11/24 01:29:49;;;;;;;;;4.67;0.67;;;;;11.72;100.00;100451.75;5060386;28;62089;-76
2022/11/24 01:32:15;;;;;;;;;1.67;0.00;;;;;11.68;100.00;100445.56;5056159;28;52034;-77
2022/11/24 01:34:40;;;;;;;;;0.00;0.00;;;;;11.65;100.00;100447.31;5055241;28;55321;-77
2022/11/24 01:37:05;;;;;;;;;3.67;0.00;;;;;11.64;100.00;100453.50;5066968;28;46544;-76
2022/11/24 01:39:31;;;;;;;;;3.00;0.00;;;;;11.61;100.00;100454.38;5051443;28;65014;-75
2022/11/24 01:42:00;;;;;;;;;1.00;0.00;;;;;11.60;100.00;100479.03;5056773;28;59933;-77
2022/11/24 01:44:28;;;;;;;;;1.00;0.00;;;;;11.54;100.00;100464.03;5053960;28;45293;-77
2022/11/24 01:46:57;;;;;;;;;0.00;0.00;;;;;11.57;100.00;100475.53;5055146;28;46565;-76
2022/11/24 01:49:30;;;;;;;;;0.00;0.00;;;;;11.54;100.00;100497.53;5052790;28;45457;-75
2022/11/24 01:52:09;;;;;;;;;0.00;0.00;;;;;11.49;100.00;100463.16;5063159;28;45442;-77
2022/11/24 01:54:42;;;;;;;;;0.00;0.00;;;;;11.51;100.00;100477.28;5050782;28;45619;-76
2022/11/24 01:57:14;;;;;;;;;1.67;0.33;;;;;11.49;100.00;100500.16;5056121;28;46436;-76
2022/11/24 01:59:39;;;;;;;;;0.00;0.00;;;;;11.45;100.00;100498.44;5058215;28;45433;-76
2022/11/24 02:02:05;;;;;;;;;1.00;0.00;;;;;11.46;100.00;100517.81;5055134;28;45229;-75
2022/11/24 02:04:32;;;;;;;;;0.00;0.00;;;;;11.41;100.00;100520.44;5051371;28;45689;-76
2022/11/24 02:07:00;;;;;;;;;0.33;0.00;;;;;11.41;100.00;100516.91;5063393;28;50119;-76
2022/11/24 02:09:35;;;;;;;;;1.00;0.00;;;;;11.40;100.00;100518.69;5041892;28;45440;-75
2022/11/24 02:12:01;;;;;;;;;1.00;0.00;;;;;11.33;100.00;100530.09;5062409;27;45524;-76
2022/11/24 02:14:27;;;;;;;;;0.00;0.00;;;;;11.36;100.00;100542.47;5057188;28;45342;-75
2022/11/24 02:16:52;;;;;;;;;0.00;0.00;;;;;11.35;100.00;100551.28;5052074;28;46668;-75
2022/11/24 02:19:44;;;;;;;;;0.00;0.00;;;;;11.33;100.00;100558.28;5062467;27;45571;-76
2022/11/24 02:22:18;;;;;;;;;0.00;0.00;;;;;11.32;100.00;100556.53;5058682;28;45454;-76
2022/11/24 02:24:55;;;;;;;;;0.00;0.00;;;;;11.28;100.00;100542.41;5059131;28;45454;-76
2022/11/24 02:27:21;;;;;;;;;1.00;0.00;;;;;11.31;100.00;100558.28;5054119;28;46531;-75
2022/11/24 02:29:46;;;;;;;;;1.00;0.00;;;;;11.29;100.00;100549.47;5061891;28;69959;-77
2022/11/24 02:32:12;;;;;;;;;0.00;0.00;;;;;11.30;100.00;100564.47;5061788;28;45331;-76
2022/11/24 02:34:37;;;;;;;;;2.33;0.00;;;;;11.29;100.00;100565.31;5061213;28;52151;-76
2022/11/24 02:37:03;;;;;;;;;0.00;0.00;;;;;11.25;100.00;100571.50;5053224;28;45967;-76
2022/11/24 02:39:28;;;;;;;;;0.00;0.00;;;;;11.28;100.00;100575.00;5066459;27;45216;-76
2022/11/24 02:41:57;;;;;;;;;0.00;0.00;;;;;11.26;100.00;100571.50;5058863;28;58519;-76
2022/11/24 02:44:25;;;;;;;;;0.00;0.00;;;;;11.25;100.00;100579.41;5072658;28;45405;-78
2022/11/24 02:47:01;;;;;;;;;0.67;0.00;;;;;11.23;100.00;100587.31;5060264;27;45384;-76
2022/11/24 02:49:26;;;;;;;;;0.00;0.00;;;;;11.21;100.00;100596.13;5061154;27;45442;-76
2022/11/24 02:51:52;;;;;;;;;2.00;0.00;;;;;11.21;100.00;100598.78;5069481;27;64869;-76
2022/11/24 02:54:17;;;;;;;;;0.00;0.00;;;;;11.20;100.00;100587.31;5057565;28;45267;-75
2022/11/24 02:56:42;;;;;;;;;1.00;0.00;;;;;11.20;100.00;100603.19;5054528;28;73718;-75
2022/11/24 02:59:07;;;;;;;;;2.33;0.00;;;;;11.18;100.00;100609.31;5055361;28;64338;-77
2022/11/24 03:01:33;;;;;;;;;0.00;0.00;;;;;11.15;100.00;100614.59;5054460;28;62803;-75
2022/11/24 03:03:58;;;;;;;;;2.67;0.00;;;;;11.15;100.00;100619.91;5060277;28;49290;-77
2022/11/24 03:06:23;;;;;;;;;2.00;0.00;;;;;11.11;100.00;100621.63;5067628;28;62709;-75
2022/11/24 03:08:49;;;;;;;;;1.00;0.00;;;;;11.11;100.00;100634.84;5049576;28;59395;-78
2022/11/24 03:11:14;;;;;;;;;0.67;0.00;;;;;11.08;100.00;100640.13;5053186;28;51303;-75
2022/11/24 03:13:39;;;;;;;;;0.00;0.00;;;;;11.10;100.00;100656.84;5046691;28;58780;-78
2022/11/24 03:16:08;;;;;;;;;2.67;0.00;;;;;11.10;100.00;100658.63;5055621;28;67629;-77
2022/11/24 03:18:33;;;;;;;;;1.33;0.00;;;;;11.07;100.00;100658.59;5050314;28;45419;-75
2022/11/24 03:20:59;;;;;;;;;5.00;0.00;;;;;11.06;100.00;100656.81;5062213;28;53307;-76
2022/11/24 03:23:24;;;;;;;;;1.67;0.00;;;;;11.05;100.00;100666.50;5053870;28;45458;-76
2022/11/24 03:25:49;;;;;;;;;2.00;0.00;;;;;11.02;100.00;100661.19;5055977;28;65385;-76
2022/11/24 03:28:14;;;;;;;;;1.00;0.00;;;;;11.02;100.00;100661.19;5058029;28;62205;-76
2022/11/24 03:30:40;;;;;;;;;3.00;0.00;;;;;11.04;100.00;100669.16;5056163;28;56752;-75
2022/11/24 03:33:06;;;;;;;;;0.00;0.00;;;;;11.04;100.00;100672.69;5059394;28;58408;-76
2022/11/24 03:35:31;;;;;;;;;0.00;0.00;;;;;11.02;100.00;100667.41;5057627;28;46543;-75
2022/11/24 03:37:56;;;;;;;;;1.33;0.00;;;;;11.05;100.00;100665.63;5060690;28;65914;-75
2022/11/24 03:40:22;;;;;;;;;0.33;0.00;;;;;11.02;100.00;100658.56;5050104;28;49092;-76
2022/11/24 03:42:47;;;;;;;;;2.33;0.00;;;;;11.04;100.00;100664.75;5061914;27;58630;-75
2022/11/24 03:45:13;;;;;;;;;1.00;0.00;;;;;11.05;100.00;100660.34;5054926;28;45705;-78
2022/11/24 03:47:39;;;;;;;;;1.00;0.67;;;;;11.06;100.00;100656.81;5064025;28;45418;-76
2022/11/24 03:50:05;;;;;;;;;1.33;0.00;;;;;11.06;100.00;100672.69;5078380;27;45206;-75
2022/11/24 03:52:30;;;;;;;;;0.00;0.00;;;;;11.06;100.00;100675.31;5058194;28;45539;-75
2022/11/24 03:54:55;;;;;;;;;2.00;0.00;;;;;11.04;100.00;100679.72;5055397;28;45912;-76
2022/11/24 03:57:21;;;;;;;;;1.00;0.00;;;;;11.02;100.00;100680.59;5057798;28;61282;-75
2022/11/24 03:59:46;;;;;;;;;1.00;0.00;;;;;11.03;100.00;100686.78;5062813;27;45859;-76
2022/11/24 04:02:11;;;;;;;;;0.33;0.00;;;;;11.00;100.00;100687.63;5051454;28;46669;-76
2022/11/24 04:04:37;;;;;;;;;2.67;0.00;;;;;10.98;100.00;100681.44;5060545;28;67446;-77
2022/11/24 04:07:02;;;;;;;;;1.33;0.00;;;;;10.98;100.00;100686.72;5061821;28;45476;-76
2022/11/24 04:09:28;;;;;;;;;1.00;1.00;;;;;10.98;100.00;100699.94;5056455;28;45458;-76
2022/11/24 04:14:37;;;;;;;;;1.00;0.00;;;;;10.99;100.00;100714.03;5058355;28;45753;-76
2022/11/24 04:17:03;;;;;;;;;0.67;0.67;;;;;10.96;100.00;100703.44;5054446;28;62521;-76
2022/11/24 04:19:28;;;;;;;;;0.00;0.00;;;;;10.95;100.00;100701.66;5062244;28;45383;-76
2022/11/24 04:21:54;;;;;;;;;0.00;0.00;;;;;10.94;100.00;100700.78;5061933;27;45481;-75
2022/11/24 04:24:19;;;;;;;;;0.33;0.33;;;;;10.92;100.00;100710.47;5056448;28;65227;-75
2022/11/24 04:26:44;;;;;;;;;1.00;0.00;;;;;10.89;100.00;100723.63;5061269;28;68940;-77
2022/11/24 04:29:10;;;;;;;;;3.00;0.00;;;;;10.87;100.00;100730.69;5062310;28;58462;-76
2022/11/24 04:31:35;;;;;;;;;1.00;1.00;;;;;10.86;100.00;100720.97;5057433;28;45588;-76
2022/11/24 04:34:00;;;;;;;;;1.00;1.00;;;;;10.81;100.00;100709.47;5062354;28;66695;-76
2022/11/24 04:36:26;;;;;;;;;0.00;0.00;;;;;10.80;100.00;100723.56;5052365;28;63781;-77
2022/11/24 04:38:52;;;;;;;;;2.00;1.00;;;;;10.80;100.00;100728.84;5065363;28;45224;-75
2022/11/24 04:41:18;;;;;;;;;1.33;0.00;;;;;10.79;100.00;100721.78;5070514;27;45575;-77
2022/11/24 04:43:44;;;;;;;;;1.00;0.00;;;;;10.80;100.00;100736.75;5055703;28;45865;-76
2022/11/24 04:46:10;;;;;;;;;0.00;0.00;;;;;10.77;100.00;100728.81;5054660;28;45442;-76
2022/11/24 04:48:35;;;;;;;;;2.67;0.00;;;;;10.78;100.00;100732.34;5057063;28;45442;-75
2022/11/24 04:51:05;;;;;;;;;2.00;0.00;;;;;10.74;100.00;100734.94;5056521;28;45607;-76
2022/11/24 04:53:30;;;;;;;;;1.00;0.00;;;;;10.75;100.00;100735.84;5055395;28;46711;-75
2022/11/24 04:55:55;;;;;;;;;1.33;1.00;;;;;10.74;100.00;100747.28;5054183;28;45361;-75
2022/11/24 04:58:21;;;;;;;;;1.67;0.00;;;;;10.71;100.00;100736.69;5057509;28;64311;-76
2022/11/24 05:00:46;;;;;;;;;0.00;0.00;;;;;10.73;100.00;100749.03;5056082;28;52776;-76
2022/11/24 05:03:11;;;;;;;;;0.67;0.00;;;;;10.73;100.00;100748.16;5056134;28;61784;-74
2022/11/24 05:05:37;;;;;;;;;0.00;0.00;;;;;10.71;100.00;100747.25;5059124;28;59629;-75
2022/11/24 05:08:02;;;;;;;;;3.33;1.00;;;;;10.72;100.00;100751.66;5065143;28;58692;-76
2022/11/24 05:10:33;;;;;;;;;1.33;0.00;;;;;10.73;100.00;100746.41;5056678;28;45527;-76
2022/11/24 05:12:59;;;;;;;;;0.00;0.00;;;;;10.75;100.00;100757.84;5056144;28;46439;-75
2022/11/24 05:15:25;;;;;;;;;0.00;0.00;;;;;10.74;100.00;100747.28;5055965;28;45533;-75
2022/11/24 05:17:50;;;;;;;;;2.33;0.00;;;;;10.75;100.00;100743.75;5066408;28;45247;-76
2022/11/24 05:20:17;;;;;;;;;0.67;0.00;;;;;10.75;100.00;100752.56;5053644;28;45394;-75
2022/11/24 05:22:42;;;;;;;;;1.00;0.00;;;;;10.77;100.00;100754.34;5055004;28;46768;-76
2022/11/24 05:25:08;;;;;;;;;3.00;0.00;;;;;10.77;100.00;100764.91;5059749;28;45414;-76
2022/11/24 05:27:33;;;;;;;;;0.00;0.00;;;;;10.76;100.00;100766.69;5058464;28;45524;-75
2022/11/24 05:29:58;;;;;;;;;0.00;0.00;;;;;10.74;100.00;100757.84;5078821;27;58893;-76
2022/11/24 05:32:24;;;;;;;;;2.33;0.00;;;;;10.74;100.00;100755.19;5058316;27;45531;-76
2022/11/24 05:34:49;;;;;;;;;1.00;0.00;;;;;10.73;100.00;100754.31;5056230;28;55616;-75
2022/11/24 05:37:14;;;;;;;;;1.00;0.00;;;;;10.74;100.00;100765.75;5051019;28;60246;-77
2022/11/24 05:39:40;;;;;;;;;0.33;0.00;;;;;10.77;100.00;100767.56;5056592;28;53536;-77
2022/11/24 05:44:51;;;;;;;;;3.33;0.33;;;;;10.78;100.00;100772.84;5049467;28;45410;-76
2022/11/24 05:47:16;;;;;;;;;2.33;0.00;;;;;10.78;100.00;100767.56;5053582;28;45564;-77
2022/11/24 05:49:42;;;;;;;;;2.33;0.00;;;;;10.78;100.00;100783.41;5070013;27;45599;-76
2022/11/24 05:52:07;;;;;;;;;1.33;0.00;;;;;10.77;100.00;100771.09;5050125;28;66005;-77
2022/11/24 05:54:32;;;;;;;;;1.33;0.00;;;;;10.79;100.00;100787.81;5074067;27;45495;-75
2022/11/24 05:56:58;;;;;;;;;1.00;0.00;;;;;10.79;100.00;100790.47;5055836;28;57302;-76
2022/11/24 05:59:23;;;;;;;;;0.00;0.00;;;;;10.75;100.00;100789.53;5057151;28;50713;-75
2022/11/24 06:01:48;;;;;;;;;0.33;0.33;;;;;10.77;100.00;100791.34;5055010;28;63358;-76
2022/11/24 06:04:14;;;;;;;;;0.00;0.00;;;;;10.78;100.00;100801.03;5047245;28;61184;-77
2022/11/24 06:06:39;;;;;;;;;0.00;0.00;;;;;10.78;100.00;100801.91;5053154;28;45576;-78
2022/11/24 06:09:04;;;;;;;;;1.00;0.00;;;;;10.77;100.00;100804.53;5055004;28;54868;-76
2022/11/24 06:11:30;;;;;;;;;3.00;0.00;;;;;10.78;100.00;100811.59;5056011;28;66932;-77
2022/11/24 06:13:55;;;;;;;;;0.00;0.00;;;;;10.77;100.00;100817.75;5054130;28;55698;-75
2022/11/24 06:16:21;;;;;;;;;0.33;0.00;;;;;10.74;100.00;100822.09;5054166;28;59510;-74
2022/11/24 06:18:46;;;;;;;;;3.00;1.00;;;;;10.73;100.00;100819.47;5040451;28;45495;-74
2022/11/24 06:21:11;;;;;;;;;0.00;0.00;;;;;10.74;100.00;100823.84;5054476;28;64130;-74
2022/11/24 06:23:37;;;;;;;;;1.33;0.00;;;;;10.77;100.00;100833.59;5042010;28;45661;-74
2022/11/24 06:26:02;;;;;;;;;1.00;0.00;;;;;10.75;100.00;100833.53;5055291;28;45327;-75
2022/11/24 06:28:28;;;;;;;;;0.00;0.00;;;;;10.74;100.00;100826.50;5047034;28;45369;-73
2022/11/24 06:30:53;;;;;;;;;2.67;1.00;;;;;10.72;100.00;100837.06;5055888;28;46776;-75
2022/11/24 06:33:18;;;;;;;;;0.67;0.00;;;;;10.73;100.00;100840.59;5073880;27;45504;-76
2022/11/24 06:35:44;;;;;;;;;1.00;1.00;;;;;10.74;100.00;100843.22;5060074;28;54921;-75
2022/11/24 06:38:09;;;;;;;;;1.00;0.00;;;;;10.73;100.00;100845.88;5063461;28;45466;-75
2022/11/24 06:40:35;;;;;;;;;0.00;0.00;;;;;10.73;100.00;100852.03;5059226;27;67897;-74
2022/11/24 06:43:00;;;;;;;;;0.00;0.00;;;;;10.71;100.00;100853.78;5055916;27;61968;-75
2022/11/24 06:45:26;;;;;;;;;2.00;0.00;;;;;10.74;100.00;100855.56;5053550;28;45501;-75
2022/11/24 06:47:53;;;;;;;;;1.33;0.00;;;;;10.69;100.00;100855.50;5063773;28;45409;-74
2022/11/24 06:50:19;;;;;;;;;1.33;0.67;;;;;10.71;100.00;100856.41;5053370;27;46367;-75
2022/11/24 06:52:44;;;;;;;;;0.67;0.00;;;;;10.68;100.00;100855.50;5050062;28;64438;-74
2022/11/24 06:55:09;;;;;;;;;0.00;0.00;;;;;10.68;100.00;100869.56;5052799;28;45448;-76
2022/11/24 06:57:35;;;;;;;;;6.33;1.00;;;;;10.62;100.00;100871.28;5030379;28;62530;-74
2022/11/24 07:00:01;;;;;;;;;3.00;0.00;;;;;10.52;100.00;100864.13;5052076;28;68587;-74
2022/11/24 07:02:26;;;;;;;;;0.33;0.00;;;;;10.41;100.00;100875.44;5321141;22;45911;-72
2022/11/24 07:04:51;;;;;;;;;1.00;0.00;;;;;10.29;100.00;100877.03;5081828;27;45499;-74
2022/11/24 07:07:17;;;;;;;;;0.00;0.00;;;;;10.22;100.00;100881.28;5093444;27;45471;-73
2022/11/24 07:09:42;;;;;;;;;3.00;0.00;;;;;10.16;100.00;100892.66;5095166;27;52831;-74
2022/11/24 07:12:07;;;;;;;;;1.33;0.00;;;;;10.10;100.00;100908.41;5092263;27;45386;-75
2022/11/24 07:14:33;;;;;;;;;3.00;0.00;;;;;10.04;100.00;100908.31;5089312;27;45681;-72
2022/11/24 07:16:59;;;;;;;;;0.00;0.00;;;;;10.05;100.00;100899.53;5094573;27;58111;-74
2022/11/24 07:19:24;;;;;;;;;1.00;0.00;;;;;10.07;100.00;100897.81;5096470;27;46774;-75
2022/11/24 07:21:50;;;;;;;;;1.33;0.00;;;;;10.12;100.00;100914.59;5066219;27;45557;-76
2022/11/24 07:24:15;;;;;;;;;0.00;0.00;;;;;10.16;100.00;100919.03;5084732;27;45805;-77
2022/11/24 07:26:40;;;;;;;;;0.00;0.00;;;;;10.20;100.00;100919.97;5081367;27;45571;-75
2022/11/24 07:29:06;;;;;;;;;0.67;0.00;;;;;10.23;100.00;100920.03;5085490;27;69946;-75
2022/11/24 07:31:31;;;;;;;;;1.00;0.00;;;;;10.26;100.00;100920.09;5091028;27;45418;-75
2022/11/24 07:33:57;;;;;;;;;4.67;0.00;;;;;10.30;100.00;100921.91;5062659;27;45500;-75
2022/11/24 07:36:23;;;;;;;;;0.67;0.00;;;;;10.32;100.00;100914.00;5083732;27;45722;-76
2022/11/24 07:38:48;;;;;;;;;0.00;0.00;;;;;10.36;100.00;100922.00;5065053;27;45741;-76
2022/11/24 07:41:16;;;;;;;;;6.67;0.67;;;;;10.34;100.00;100917.56;5079754;27;45605;-74
2022/11/24 07:43:42;;;;;;;;;2.67;0.33;;;;;10.37;100.00;100929.03;5087930;27;45446;-75
2022/11/24 07:46:10;;;;;;;;;5.33;2.33;;;;;10.38;100.00;100932.56;5088371;27;45988;-77
2022/11/24 07:48:36;;;;;;;;;3.33;2.67;;;;;10.39;100.00;100939.63;5066426;27;45783;-75
2022/11/24 07:51:03;;;;;;;;;1.00;1.00;;;;;10.39;100.00;100947.56;5074694;27;45438;-75
2022/11/24 07:53:28;;;;;;;;;2.33;1.33;;;;;10.35;100.00;100940.44;5085476;27;45465;-74
2022/11/24 07:55:59;;;;;;;;;3.33;1.00;;;;;10.34;100.00;100943.97;5071388;27;45501;-76
2022/11/24 07:58:30;;;;;;;;;3.00;1.00;;;;;10.33;100.00;100950.97;5079075;27;45661;-75
2022/11/24 08:00:56;;;;;;;;;3.67;1.00;;;;;10.32;100.00;100953.59;5086820;27;45446;-75
2022/11/24 08:03:22;;;;;;;;;1.00;1.00;;;;;10.32;100.00;100962.41;5086378;27;45488;-75
2022/11/24 08:05:55;;;;;;;;;2.00;0.00;;;;;10.34;100.00;100958.03;5084049;27;45601;-76
2022/11/24 08:08:21;;;;;;;;;2.00;1.00;;;;;10.40;100.00;100960.75;5083654;27;46583;-75
2022/11/24 08:10:46;;;;;;;;;1.00;1.00;;;;;10.46;100.00;100959.97;5083420;27;45375;-76
2022/11/24 08:13:11;;;;;;;;;3.00;1.00;;;;;10.51;100.00;100960.91;5069027;27;47411;-74
2022/11/24 08:15:37;;;;;;;;;3.00;1.00;;;;;10.51;100.00;100957.38;5085162;27;45567;-75
2022/11/24 08:18:03;;;;;;;;;0.67;0.67;;;;;10.58;100.00;100969.78;5090405;27;47122;-75
2022/11/24 08:20:28;;;;;;;;;7.67;1.00;;;;;10.60;100.00;100973.31;5046250;27;45475;-75
2022/11/24 08:22:58;;;;;;;;;1.00;1.00;;;;;10.61;100.00;100978.66;5082431;27;48813;-74
2022/11/24 08:25:25;;;;;;;;;4.00;1.00;;;;;10.61;100.00;100983.94;5065040;27;45594;-75
2022/11/24 08:27:51;;;;;;;;;3.33;1.00;;;;;10.62;100.00;100998.00;5063821;27;47020;-77
2022/11/24 08:30:17;;;;;;;;;0.00;0.00;;;;;10.60;100.00;100997.09;5086359;27;45529;-77
2022/11/24 08:32:42;;;;;;;;;0.00;0.00;;;;;10.59;100.00;100997.97;5079824;27;45959;-75
2022/11/24 08:35:08;;;;;;;;;2.33;0.33;;;;;10.61;100.00;101007.69;5061583;27;47324;-76
2022/11/24 08:37:33;;;;;;;;;0.00;0.00;;;;;10.61;100.00;101007.69;5071995;27;48032;-75
2022/11/24 08:39:59;;;;;;;;;4.00;2.00;;;;;10.65;100.00;101019.16;5088155;27;45454;-75
2022/11/24 08:42:24;;;;;;;;;1.67;1.00;;;;;10.66;100.00;101018.31;5068093;27;47789;-75
2022/11/24 08:44:49;;;;;;;;;1.00;0.00;;;;;10.65;100.00;101020.06;5084029;27;51759;-75
2022/11/24 08:47:15;;;;;;;;;5.67;2.33;;;;;10.67;100.00;101020.09;5086374;27;45546;-74
2022/11/24 08:49:41;;;;;;;;;1.00;1.00;;;;;10.67;100.00;101023.63;5079552;27;45756;-75
2022/11/24 08:52:06;;;;;;;;;5.33;1.33;;;;;10.67;100.00;101010.41;5085453;27;52068;-75
2022/11/24 08:54:31;;;;;;;;;4.33;1.00;;;;;10.68;100.00;101014.81;5061153;27;47994;-75
2022/11/24 08:56:57;;;;;;;;;2.00;1.00;;;;;10.72;100.00;101003.44;5083965;27;46531;-75
2022/11/24 08:59:22;;;;;;;;;0.00;0.00;;;;;10.76;100.00;101004.38;5066344;27;52758;-76
2022/11/24 09:01:48;;;;;;;;;3.00;1.00;;;;;10.83;100.00;101010.63;5066744;27;45454;-76
2022/11/24 09:04:13;;;;;;;;;4.00;1.00;;;;;10.88;100.00;101009.81;5069376;27;45879;-76
2022/11/24 09:06:39;;;;;;;;;2.67;1.00;;;;;10.94;100.00;101012.53;5083501;27;46437;-75
2022/11/24 09:09:04;;;;;;;;;0.00;0.00;;;;;10.95;100.00;101006.34;5079713;27;45591;-75
2022/11/24 09:11:32;;;;;;;;;9.00;1.00;;;;;11.02;100.00;101010.88;5092041;27;45538;-76
2022/11/24 09:13:58;;;;;;;;;2.33;2.33;;;;;11.06;100.00;101011.78;5078080;27;45798;-76
2022/11/24 09:16:26;;;;;;;;;8.67;2.00;;;;;11.05;100.00;101015.28;5094585;27;46608;-77
2022/11/24 09:19:03;;;;;;;;;2.00;1.00;;;;;11.09;100.00;101010.94;5092200;27;45484;-76
2022/11/24 09:21:30;;;;;;;;;3.00;1.67;;;;;11.12;100.00;101022.41;5085889;27;45532;-78
2022/11/24 09:23:56;;;;;;;;;0.33;0.33;;;;;11.17;100.00;101027.75;5082793;27;45779;-77
2022/11/24 09:26:29;;;;;;;;;2.33;1.00;;;;;11.22;100.00;101020.78;5092976;27;46185;-78
2022/11/24 09:28:56;;;;;;;;;2.00;0.00;;;;;11.28;100.00;101023.47;5086058;27;45490;-77
2022/11/24 09:31:24;;;;;;;;;4.00;2.00;;;;;11.32;100.00;101021.75;5087266;27;45995;-77
2022/11/24 09:33:49;;;;;;;;;2.33;0.67;;;;;11.35;100.00;101009.47;5090945;27;45628;-76
2022/11/24 09:36:14;;;;;;;;;4.33;1.00;;;;;11.37;100.00;101007.72;5055851;27;47549;-76
2022/11/24 09:38:40;;;;;;;;;4.00;1.00;;;;;11.39;100.00;101008.59;5089997;27;65357;-77
2022/11/24 09:41:39;;;;;;;;;2.33;1.67;;;;;11.39;100.00;101005.97;5074502;27;60075;-76
2022/11/24 09:44:06;;;;;;;;;4.00;3.00;;;;;11.39;100.00;100995.38;5042091;27;45546;-76
2022/11/24 09:46:47;;;;;;;;;1.67;1.00;;;;;11.45;100.00;101003.41;5090699;27;46820;-75
2022/11/24 09:49:16;;;;;;;;;4.00;2.00;;;;;11.50;100.00;101006.06;5088135;27;45500;-75
2022/11/24 09:51:45;;;;;;;;;3.67;3.00;;;;;11.53;100.00;101014.06;5054944;27;45546;-75
2022/11/24 09:54:21;;;;;;;;;2.00;2.00;;;;;11.57;100.00;101020.28;5069322;27;45508;-75
2022/11/24 09:56:50;;;;;;;;;1.67;1.00;;;;;11.58;100.00;101020.28;5064212;27;47712;-75
2022/11/24 09:59:23;;;;;;;;;1.67;1.67;;;;;11.63;100.00;101022.97;5070611;27;45346;-75
2022/11/24 10:01:49;;;;;;;;;1.33;1.00;;;;;11.68;100.00;101026.56;5075451;27;45478;-75
2022/11/24 10:04:28;;;;;;;;;6.33;4.67;;;;;11.69;100.00;101037.13;5086044;27;45415;-77
2022/11/24 10:07:16;;;;;;;;;2.00;2.00;;;;;11.69;100.00;101042.44;5058609;27;48827;-75
2022/11/24 10:10:09;;;;;;;;;4.33;2.00;;;;;11.72;100.00;101025.72;5057957;27;45538;-74
2022/11/24 10:12:57;;;;;;;;;3.00;3.00;;;;;11.74;100.00;101018.66;5073763;27;45298;-73
2022/11/24 10:15:24;;;;;;;;;2.00;1.00;;;;;11.77;100.00;101027.53;5090446;27;46214;-75
2022/11/24 10:18:07;;;;;;;;;3.67;1.00;;;;;11.79;100.00;101012.53;5093972;27;45799;-75
2022/11/24 10:20:35;;;;;;;;;2.00;0.33;;;;;11.87;100.00;101019.69;5092036;27;45492;-77
2022/11/24 10:23:10;;;;;;;;;3.33;1.00;;;;;11.92;100.00;101010.91;5093564;27;45472;-75
2022/11/24 10:25:53;;;;;;;;;1.00;1.00;;;;;11.97;100.00;101000.38;5095343;27;46053;-73
2022/11/24 10:28:18;;;;;;;;;1.33;1.00;;;;;12.00;100.00;100997.75;5065536;27;45618;-78
2022/11/24 10:30:44;;;;;;;;;3.33;1.33;;;;;12.04;100.00;101002.22;5086336;27;57357;-77
2022/11/24 10:33:21;;;;;;;;;2.00;1.00;;;;;12.06;100.00;100992.50;5089706;27;45245;-77
2022/11/24 10:35:55;;;;;;;;;2.00;1.00;;;;;12.11;100.00;100993.44;5080499;27;45645;-78
2022/11/24 10:38:44;;;;;;;;;4.00;1.67;;;;;12.16;100.00;100990.81;5055628;27;48360;-79
2022/11/24 10:41:25;;;;;;;;;2.67;1.00;;;;;12.20;100.00;100996.16;5072042;27;45591;-76
2022/11/24 10:43:50;;;;;;;;;0.33;0.33;;;;;12.16;100.00;100975.81;5081152;27;45482;-77
2022/11/24 10:46:25;;;;;;;;;3.33;1.00;;;;;12.24;100.00;100983.78;5071912;27;64192;-79
2022/11/24 10:48:59;;;;;;;;;2.33;1.33;;;;;12.30;100.00;100989.13;5063659;27;48841;-77
2022/11/24 10:51:46;;;;;;;;;2.33;0.00;;;;;12.33;100.00;100989.16;5068775;27;45630;-78
2022/11/24 10:54:17;;;;;;;;;1.33;0.67;;;;;12.37;100.00;100985.66;5067572;27;45560;-78
2022/11/24 10:56:44;;;;;;;;;3.33;1.00;;;;;12.41;100.00;100975.94;5068306;27;45445;-78
2022/11/24 10:59:43;;;;;;;;;1.00;1.00;;;;;12.44;100.00;100984.81;5078651;27;45847;-79
2022/11/24 11:02:37;;;;;;;;;2.00;1.00;;;;;12.49;100.00;100976.91;5075122;27;45627;-80
2022/11/24 11:05:22;;;;;;;;;3.00;1.00;;;;;12.53;100.00;100974.28;5069928;27;45331;-80
2022/11/24 11:07:47;;;;;;;;;8.00;1.00;;;;;12.58;100.00;100969.00;5086494;27;45586;-81
2022/11/24 11:10:18;;;;;;;;;2.00;0.67;;;;;12.63;100.00;100967.28;5056268;28;69437;-79
2022/11/24 11:12:44;;;;;;;;;3.00;1.33;;;;;12.68;100.00;100956.69;5092790;27;45390;-81
2022/11/24 11:15:30;;;;;;;;;3.00;2.00;;;;;12.77;100.00;100957.59;5080352;27;45489;-78
2022/11/24 11:17:57;;;;;;;;;2.00;1.00;;;;;12.84;100.00;100953.22;5095586;27;45420;-76
2022/11/24 11:20:31;;;;;;;;;2.00;2.00;;;;;12.91;100.00;100951.47;5082788;27;45962;-76
2022/11/24 11:22:59;;;;;;;;;1.33;1.33;;;;;13.00;100.00;100944.44;5084858;27;45830;-77
2022/11/24 11:25:33;;;;;;;;;2.00;2.00;;;;;13.06;100.00;100947.09;5069756;27;45440;-80